sensor_id;sensor_type;location;lat;lon;timestamp;P1;durP1;ratioP1;P2;durP2;ratioP2
5696;SDS011;2873;50.966;7.210;2023-04-03T00:00:57;2.30;;;2.10;;
5696;SDS011;2873;50.966;7.210;2023-04-03T00:03:22;2.75;;;2.10;;
5696;SDS011;2873;50.966;7.210;2023-04-03T00:05:48;3.47;;;2.90;;
5696;SDS011;2873;50.966;7.210;2023-04-03T00:08:14;2.88;;;2.47;;
5696;SDS011;2873;50.966;7.210;2023-04-03T00:10:40;4.07;;;2.63;;
5696;SDS011;2873;50.966;7.210;2023-04-03T00:13:06;3.00;;;2.60;;
5696;SDS011;2873;50.966;7.210;2023-04-03T00:15:33;5.45;;;2.35;;
5696;SDS011;2873;50.966;7.210;2023-04-03T00:17:59;2.60;;;2.40;;
5696;SDS011;2873;50.966;7.210;2023-04-03T00:20:25;3.70;;;2.70;;
5696;SDS011;2873;50.966;7.210;2023-04-03T00:22:52;2.70;;;2.50;;
5696;SDS011;2873;50.966;7.210;2023-04-03T00:25:17;6.07;;;2.80;;
5696;SDS011;2873;50.966;7.210;2023-04-03T00:27:43;3.87;;;3.43;;
5696;SDS011;2873;50.966;7.210;2023-04-03T00:33:14;3.10;;;2.80;;
5696;SDS011;2873;50.966;7.210;2023-04-03T00:35:40;3.03;;;2.83;;
5696;SDS011;2873;50.966;7.210;2023-04-03T00:38:06;5.60;;;2.95;;
5696;SDS011;2873;50.966;7.210;2023-04-03T00:40:36;3.20;;;3.00;;
5696;SDS011;2873;50.966;7.210;2023-04-03T00:43:08;3.28;;;2.80;;
5696;SDS011;2873;50.966;7.210;2023-04-03T00:45:38;3.05;;;2.85;;
5696;SDS011;2873;50.966;7.210;2023-04-03T00:48:07;2.92;;;2.72;;
5696;SDS011;2873;50.966;7.210;2023-04-03T00:50:37;3.15;;;2.85;;
5696;SDS011;2873;50.966;7.210;2023-04-03T00:53:04;5.18;;;2.70;;
5696;SDS011;2873;50.966;7.210;2023-04-03T00:55:31;4.65;;;2.70;;
5696;SDS011;2873;50.966;7.210;2023-04-03T00:57:58;5.10;;;2.70;;
5696;SDS011;2873;50.966;7.210;2023-04-03T01:00:25;2.72;;;2.53;;
5696;SDS011;2873;50.966;7.210;2023-04-03T01:02:52;2.67;;;2.47;;
5696;SDS011;2873;50.966;7.210;2023-04-03T01:05:18;3.03;;;2.80;;
5696;SDS011;2873;50.966;7.210;2023-04-03T01:07:45;3.92;;;2.60;;
5696;SDS011;2873;50.966;7.210;2023-04-03T01:10:13;2.60;;;2.40;;
5696;SDS011;2873;50.966;7.210;2023-04-03T01:12:42;4.00;;;2.63;;
5696;SDS011;2873;50.966;7.210;2023-04-03T01:15:13;2.83;;;2.63;;
5696;SDS011;2873;50.966;7.210;2023-04-03T01:17:42;3.15;;;2.35;;
5696;SDS011;2873;50.966;7.210;2023-04-03T01:22:59;3.80;;;2.58;;
5696;SDS011;2873;50.966;7.210;2023-04-03T01:25:30;2.80;;;2.60;;
5696;SDS011;2873;50.966;7.210;2023-04-03T01:27:56;3.40;;;3.20;;
5696;SDS011;2873;50.966;7.210;2023-04-03T01:30:24;4.23;;;2.73;;
5696;SDS011;2873;50.966;7.210;2023-04-03T01:32:58;2.80;;;2.60;;
5696;SDS011;2873;50.966;7.210;2023-04-03T01:35:24;3.45;;;3.00;;
5696;SDS011;2873;50.966;7.210;2023-04-03T01:37:49;3.07;;;2.87;;
5696;SDS011;2873;50.966;7.210;2023-04-03T01:40:15;6.10;;;3.00;;
5696;SDS011;2873;50.966;7.210;2023-04-03T01:42:40;2.90;;;2.70;;
5696;SDS011;2873;50.966;7.210;2023-04-03T01:45:06;3.30;;;3.00;;
5696;SDS011;2873;50.966;7.210;2023-04-03T01:47:32;2.50;;;2.40;;
5696;SDS011;2873;50.966;7.210;2023-04-03T01:49:57;3.50;;;3.20;;
5696;SDS011;2873;50.966;7.210;2023-04-03T01:52:23;3.10;;;2.90;;
5696;SDS011;2873;50.966;7.210;2023-04-03T01:54:49;3.40;;;3.10;;
5696;SDS011;2873;50.966;7.210;2023-04-03T01:57:15;3.35;;;3.10;;
5696;SDS011;2873;50.966;7.210;2023-04-03T01:59:41;2.75;;;2.65;;
5696;SDS011;2873;50.966;7.210;2023-04-03T02:02:06;5.20;;;3.00;;
5696;SDS011;2873;50.966;7.210;2023-04-03T02:04:32;5.20;;;3.38;;
5696;SDS011;2873;50.966;7.210;2023-04-03T02:06:58;4.50;;;3.50;;
5696;SDS011;2873;50.966;7.210;2023-04-03T02:09:23;3.97;;;3.50;;
5696;SDS011;2873;50.966;7.210;2023-04-03T02:11:49;3.70;;;3.40;;
5696;SDS011;2873;50.966;7.210;2023-04-03T02:14:14;3.40;;;3.20;;
5696;SDS011;2873;50.966;7.210;2023-04-03T02:16:40;6.18;;;3.50;;
5696;SDS011;2873;50.966;7.210;2023-04-03T02:19:06;4.40;;;3.60;;
5696;SDS011;2873;50.966;7.210;2023-04-03T02:21:31;3.85;;;3.55;;
5696;SDS011;2873;50.966;7.210;2023-04-03T02:23:57;4.43;;;3.63;;
5696;SDS011;2873;50.966;7.210;2023-04-03T02:26:22;5.03;;;3.57;;
5696;SDS011;2873;50.966;7.210;2023-04-03T02:28:48;4.78;;;3.30;;
5696;SDS011;2873;50.966;7.210;2023-04-03T02:31:14;7.07;;;3.90;;
5696;SDS011;2873;50.966;7.210;2023-04-03T02:33:39;3.60;;;3.30;;
5696;SDS011;2873;50.966;7.210;2023-04-03T02:36:06;3.60;;;3.30;;
5696;SDS011;2873;50.966;7.210;2023-04-03T02:38:32;4.75;;;3.70;;
5696;SDS011;2873;50.966;7.210;2023-04-03T02:41:04;4.03;;;3.72;;
5696;SDS011;2873;50.966;7.210;2023-04-03T02:43:32;5.10;;;3.40;;
5696;SDS011;2873;50.966;7.210;2023-04-03T02:45:58;3.73;;;3.43;;
5696;SDS011;2873;50.966;7.210;2023-04-03T02:48:24;7.28;;;3.60;;
5696;SDS011;2873;50.966;7.210;2023-04-03T02:50:50;5.13;;;3.90;;
5696;SDS011;2873;50.966;7.210;2023-04-03T02:53:16;3.47;;;3.08;;
5696;SDS011;2873;50.966;7.210;2023-04-03T02:55:41;3.40;;;3.20;;
5696;SDS011;2873;50.966;7.210;2023-04-03T02:58:07;4.10;;;3.70;;
5696;SDS011;2873;50.966;7.210;2023-04-03T03:00:33;3.50;;;3.30;;
5696;SDS011;2873;50.966;7.210;2023-04-03T03:02:59;3.40;;;3.20;;
5696;SDS011;2873;50.966;7.210;2023-04-03T03:05:25;3.40;;;3.10;;
5696;SDS011;2873;50.966;7.210;2023-04-03T03:07:52;6.22;;;3.60;;
5696;SDS011;2873;50.966;7.210;2023-04-03T03:10:18;3.88;;;3.58;;
5696;SDS011;2873;50.966;7.210;2023-04-03T03:12:43;4.10;;;3.80;;
5696;SDS011;2873;50.966;7.210;2023-04-03T03:15:09;4.40;;;4.00;;
5696;SDS011;2873;50.966;7.210;2023-04-03T03:17:35;3.60;;;3.30;;
5696;SDS011;2873;50.966;7.210;2023-04-03T03:20:01;7.95;;;3.40;;
5696;SDS011;2873;50.966;7.210;2023-04-03T03:22:28;4.30;;;3.10;;
5696;SDS011;2873;50.966;7.210;2023-04-03T03:24:54;3.38;;;3.08;;
5696;SDS011;2873;50.966;7.210;2023-04-03T03:27:20;3.50;;;3.20;;
5696;SDS011;2873;50.966;7.210;2023-04-03T03:29:45;3.60;;;3.30;;
5696;SDS011;2873;50.966;7.210;2023-04-03T03:32:11;3.40;;;3.10;;
5696;SDS011;2873;50.966;7.210;2023-04-03T03:34:37;5.55;;;3.38;;
5696;SDS011;2873;50.966;7.210;2023-04-03T03:37:02;13.75;;;3.35;;
5696;SDS011;2873;50.966;7.210;2023-04-03T03:39:28;4.60;;;3.10;;
5696;SDS011;2873;50.966;7.210;2023-04-03T03:41:54;6.35;;;2.80;;
5696;SDS011;2873;50.966;7.210;2023-04-03T03:44:20;3.03;;;2.90;;
5696;SDS011;2873;50.966;7.210;2023-04-03T03:46:46;3.35;;;2.90;;
5696;SDS011;2873;50.966;7.210;2023-04-03T03:49:11;4.07;;;3.33;;
5696;SDS011;2873;50.966;7.210;2023-04-03T03:51:38;4.63;;;2.97;;
5696;SDS011;2873;50.966;7.210;2023-04-03T03:54:04;2.97;;;2.78;;
5696;SDS011;2873;50.966;7.210;2023-04-03T03:56:30;4.55;;;3.20;;
5696;SDS011;2873;50.966;7.210;2023-04-03T03:58:56;2.70;;;2.50;;
5696;SDS011;2873;50.966;7.210;2023-04-03T04:01:22;5.30;;;3.20;;
5696;SDS011;2873;50.966;7.210;2023-04-03T04:03:48;4.90;;;3.20;;
5696;SDS011;2873;50.966;7.210;2023-04-03T04:06:14;4.80;;;3.10;;
5696;SDS011;2873;50.966;7.210;2023-04-03T04:08:40;3.97;;;3.10;;
5696;SDS011;2873;50.966;7.210;2023-04-03T04:11:06;2.80;;;2.60;;
5696;SDS011;2873;50.966;7.210;2023-04-03T04:13:32;4.75;;;2.80;;
5696;SDS011;2873;50.966;7.210;2023-04-03T04:15:58;3.55;;;2.60;;
5696;SDS011;2873;50.966;7.210;2023-04-03T04:18:23;4.37;;;3.23;;
5696;SDS011;2873;50.966;7.210;2023-04-03T04:20:49;4.55;;;3.00;;
5696;SDS011;2873;50.966;7.210;2023-04-03T04:23:15;4.40;;;2.80;;
5696;SDS011;2873;50.966;7.210;2023-04-03T04:25:44;4.85;;;2.80;;
5696;SDS011;2873;50.966;7.210;2023-04-03T04:28:10;4.20;;;2.80;;
5696;SDS011;2873;50.966;7.210;2023-04-03T04:30:36;6.10;;;3.00;;
5696;SDS011;2873;50.966;7.210;2023-04-03T04:33:02;4.82;;;3.10;;
5696;SDS011;2873;50.966;7.210;2023-04-03T04:35:27;2.40;;;2.20;;
5696;SDS011;2873;50.966;7.210;2023-04-03T04:37:53;4.38;;;3.22;;
5696;SDS011;2873;50.966;7.210;2023-04-03T04:40:19;4.45;;;3.00;;
5696;SDS011;2873;50.966;7.210;2023-04-03T04:42:45;4.28;;;3.10;;
5696;SDS011;2873;50.966;7.210;2023-04-03T04:45:11;3.10;;;2.80;;
5696;SDS011;2873;50.966;7.210;2023-04-03T04:47:36;4.87;;;2.50;;
5696;SDS011;2873;50.966;7.210;2023-04-03T04:50:02;5.75;;;2.90;;
5696;SDS011;2873;50.966;7.210;2023-04-03T04:52:28;5.30;;;3.10;;
5696;SDS011;2873;50.966;7.210;2023-04-03T04:54:53;4.40;;;3.00;;
5696;SDS011;2873;50.966;7.210;2023-04-03T04:57:19;4.95;;;2.97;;
5696;SDS011;2873;50.966;7.210;2023-04-03T04:59:45;3.20;;;2.60;;
5696;SDS011;2873;50.966;7.210;2023-04-03T05:02:10;4.38;;;2.67;;
5696;SDS011;2873;50.966;7.210;2023-04-03T05:04:36;4.33;;;2.80;;
5696;SDS011;2873;50.966;7.210;2023-04-03T05:07:01;3.40;;;2.60;;
5696;SDS011;2873;50.966;7.210;2023-04-03T05:09:27;3.67;;;2.60;;
5696;SDS011;2873;50.966;7.210;2023-04-03T05:11:52;2.95;;;2.47;;
5696;SDS011;2873;50.966;7.210;2023-04-03T05:14:18;7.43;;;2.30;;
5696;SDS011;2873;50.966;7.210;2023-04-03T05:16:43;3.17;;;2.33;;
5696;SDS011;2873;50.966;7.210;2023-04-03T05:19:09;5.53;;;2.97;;
5696;SDS011;2873;50.966;7.210;2023-04-03T05:21:35;3.57;;;2.83;;
5696;SDS011;2873;50.966;7.210;2023-04-03T05:24:00;3.95;;;2.75;;
5696;SDS011;2873;50.966;7.210;2023-04-03T05:26:28;4.18;;;2.40;;
5696;SDS011;2873;50.966;7.210;2023-04-03T05:28:54;3.38;;;2.40;;
5696;SDS011;2873;50.966;7.210;2023-04-03T05:31:20;4.10;;;2.60;;
5696;SDS011;2873;50.966;7.210;2023-04-03T05:33:45;2.90;;;2.70;;
5696;SDS011;2873;50.966;7.210;2023-04-03T05:36:11;2.80;;;2.60;;
5696;SDS011;2873;50.966;7.210;2023-04-03T05:38:37;4.47;;;2.67;;
5696;SDS011;2873;50.966;7.210;2023-04-03T05:41:03;3.83;;;2.50;;
5696;SDS011;2873;50.966;7.210;2023-04-03T05:43:28;5.85;;;2.72;;
5696;SDS011;2873;50.966;7.210;2023-04-03T05:45:54;2.70;;;2.50;;
5696;SDS011;2873;50.966;7.210;2023-04-03T05:48:20;2.20;;;2.10;;
5696;SDS011;2873;50.966;7.210;2023-04-03T05:50:46;6.93;;;2.50;;
5696;SDS011;2873;50.966;7.210;2023-04-03T05:53:20;2.85;;;2.20;;
5696;SDS011;2873;50.966;7.210;2023-04-03T05:55:48;3.65;;;2.47;;
5696;SDS011;2873;50.966;7.210;2023-04-03T05:58:14;3.07;;;2.60;;
5696;SDS011;2873;50.966;7.210;2023-04-03T06:00:40;2.63;;;2.30;;
5696;SDS011;2873;50.966;7.210;2023-04-03T06:03:05;3.33;;;2.60;;
5696;SDS011;2873;50.966;7.210;2023-04-03T06:05:31;3.30;;;2.60;;
5696;SDS011;2873;50.966;7.210;2023-04-03T06:13:44;3.10;;;2.20;;
5696;SDS011;2873;50.966;7.210;2023-04-03T06:16:13;3.85;;;2.65;;
5696;SDS011;2873;50.966;7.210;2023-04-03T06:18:40;3.67;;;1.95;;
5696;SDS011;2873;50.966;7.210;2023-04-03T06:21:06;2.47;;;2.20;;
5696;SDS011;2873;50.966;7.210;2023-04-03T06:23:32;4.40;;;2.10;;
5696;SDS011;2873;50.966;7.210;2023-04-03T06:29:20;3.47;;;2.10;;
5696;SDS011;2873;50.966;7.210;2023-04-03T06:31:46;5.90;;;1.75;;
5696;SDS011;2873;50.966;7.210;2023-04-03T06:34:12;4.78;;;2.00;;
5696;SDS011;2873;50.966;7.210;2023-04-03T06:36:38;3.85;;;1.63;;
5696;SDS011;2873;50.966;7.210;2023-04-03T06:39:05;5.40;;;1.87;;
5696;SDS011;2873;50.966;7.210;2023-04-03T06:41:32;2.60;;;1.90;;
5696;SDS011;2873;50.966;7.210;2023-04-03T06:43:58;3.40;;;2.08;;
5696;SDS011;2873;50.966;7.210;2023-04-03T06:46:24;6.10;;;1.90;;
5696;SDS011;2873;50.966;7.210;2023-04-03T06:48:50;4.32;;;1.88;;
5696;SDS011;2873;50.966;7.210;2023-04-03T06:51:17;2.67;;;1.88;;
5696;SDS011;2873;50.966;7.210;2023-04-03T06:53:51;2.67;;;1.83;;
5696;SDS011;2873;50.966;7.210;2023-04-03T06:56:18;1.60;;;1.50;;
5696;SDS011;2873;50.966;7.210;2023-04-03T06:58:44;1.50;;;1.40;;
5696;SDS011;2873;50.966;7.210;2023-04-03T07:01:11;2.22;;;1.90;;
5696;SDS011;2873;50.966;7.210;2023-04-03T07:03:39;4.50;;;1.90;;
5696;SDS011;2873;50.966;7.210;2023-04-03T07:06:05;4.17;;;1.90;;
5696;SDS011;2873;50.966;7.210;2023-04-03T07:08:32;2.90;;;2.10;;
5696;SDS011;2873;50.966;7.210;2023-04-03T07:10:58;3.88;;;1.90;;
5696;SDS011;2873;50.966;7.210;2023-04-03T07:13:24;4.57;;;2.03;;
5696;SDS011;2873;50.966;7.210;2023-04-03T07:15:50;5.60;;;2.30;;
5696;SDS011;2873;50.966;7.210;2023-04-03T07:18:15;2.93;;;1.80;;
5696;SDS011;2873;50.966;7.210;2023-04-03T07:20:44;4.53;;;2.00;;
5696;SDS011;2873;50.966;7.210;2023-04-03T07:23:10;3.55;;;2.20;;
5696;SDS011;2873;50.966;7.210;2023-04-03T07:25:36;3.88;;;2.25;;
5696;SDS011;2873;50.966;7.210;2023-04-03T07:28:06;3.80;;;2.20;;
5696;SDS011;2873;50.966;7.210;2023-04-03T07:30:33;2.22;;;1.77;;
5696;SDS011;2873;50.966;7.210;2023-04-03T07:32:58;3.08;;;1.73;;
5696;SDS011;2873;50.966;7.210;2023-04-03T07:35:24;4.37;;;2.33;;
5696;SDS011;2873;50.966;7.210;2023-04-03T07:37:49;3.63;;;2.20;;
5696;SDS011;2873;50.966;7.210;2023-04-03T07:40:15;3.40;;;2.10;;
5696;SDS011;2873;50.966;7.210;2023-04-03T07:42:41;4.73;;;1.90;;
5696;SDS011;2873;50.966;7.210;2023-04-03T07:45:07;3.55;;;2.15;;
5696;SDS011;2873;50.966;7.210;2023-04-03T07:47:33;1.42;;;1.33;;
5696;SDS011;2873;50.966;7.210;2023-04-03T07:49:58;5.20;;;1.50;;
5696;SDS011;2873;50.966;7.210;2023-04-03T07:52:24;6.53;;;1.90;;
5696;SDS011;2873;50.966;7.210;2023-04-03T07:54:50;2.10;;;1.90;;
5696;SDS011;2873;50.966;7.210;2023-04-03T07:57:16;3.50;;;1.70;;
5696;SDS011;2873;50.966;7.210;2023-04-03T07:59:41;9.43;;;1.57;;
5696;SDS011;2873;50.966;7.210;2023-04-03T08:02:11;3.20;;;1.70;;
5696;SDS011;2873;50.966;7.210;2023-04-03T08:04:37;4.60;;;1.65;;
5696;SDS011;2873;50.966;7.210;2023-04-03T08:07:02;3.40;;;2.00;;
5696;SDS011;2873;50.966;7.210;2023-04-03T08:09:28;4.85;;;1.70;;
5696;SDS011;2873;50.966;7.210;2023-04-03T08:11:54;5.87;;;2.03;;
5696;SDS011;2873;50.966;7.210;2023-04-03T08:14:19;2.60;;;0.93;;
5696;SDS011;2873;50.966;7.210;2023-04-03T08:16:46;2.25;;;1.10;;
5696;SDS011;2873;50.966;7.210;2023-04-03T08:19:13;2.00;;;1.30;;
5696;SDS011;2873;50.966;7.210;2023-04-03T08:21:40;2.30;;;1.20;;
5696;SDS011;2873;50.966;7.210;2023-04-03T08:24:06;3.00;;;1.20;;
5696;SDS011;2873;50.966;7.210;2023-04-03T08:26:33;1.60;;;1.00;;
5696;SDS011;2873;50.966;7.210;2023-04-03T08:28:58;2.80;;;1.90;;
5696;SDS011;2873;50.966;7.210;2023-04-03T08:31:24;3.00;;;1.60;;
5696;SDS011;2873;50.966;7.210;2023-04-03T08:33:50;3.75;;;1.45;;
5696;SDS011;2873;50.966;7.210;2023-04-03T08:36:17;1.00;;;0.90;;
5696;SDS011;2873;50.966;7.210;2023-04-03T08:38:45;1.90;;;1.20;;
5696;SDS011;2873;50.966;7.210;2023-04-03T08:44:01;2.10;;;1.17;;
5696;SDS011;2873;50.966;7.210;2023-04-03T08:49:04;1.25;;;1.10;;
5696;SDS011;2873;50.966;7.210;2023-04-03T08:51:39;1.77;;;0.93;;
5696;SDS011;2873;50.966;7.210;2023-04-03T08:54:15;3.67;;;1.20;;
5696;SDS011;2873;50.966;7.210;2023-04-03T08:56:58;1.17;;;0.93;;
5696;SDS011;2873;50.966;7.210;2023-04-03T08:59:28;6.40;;;1.20;;
5696;SDS011;2873;50.966;7.210;2023-04-03T09:01:57;1.63;;;1.13;;
5696;SDS011;2873;50.966;7.210;2023-04-03T09:04:27;4.45;;;1.40;;
5696;SDS011;2873;50.966;7.210;2023-04-03T09:06:58;4.10;;;1.30;;
5696;SDS011;2873;50.966;7.210;2023-04-03T09:09:39;1.90;;;1.33;;
5696;SDS011;2873;50.966;7.210;2023-04-03T09:12:26;2.22;;;1.20;;
5696;SDS011;2873;50.966;7.210;2023-04-03T09:14:59;1.02;;;0.90;;
5696;SDS011;2873;50.966;7.210;2023-04-03T09:17:40;2.80;;;1.23;;
5696;SDS011;2873;50.966;7.210;2023-04-03T09:23:32;2.50;;;1.10;;
5696;SDS011;2873;50.966;7.210;2023-04-03T09:25:58;2.65;;;1.50;;
5696;SDS011;2873;50.966;7.210;2023-04-03T09:28:29;2.78;;;1.20;;
5696;SDS011;2873;50.966;7.210;2023-04-03T09:31:00;2.22;;;0.90;;
5696;SDS011;2873;50.966;7.210;2023-04-03T09:33:26;2.00;;;0.80;;
5696;SDS011;2873;50.966;7.210;2023-04-03T09:35:55;2.53;;;0.70;;
5696;SDS011;2873;50.966;7.210;2023-04-03T09:38:21;1.50;;;1.00;;
5696;SDS011;2873;50.966;7.210;2023-04-03T09:45:43;1.40;;;1.10;;
5696;SDS011;2873;50.966;7.210;2023-04-03T09:50:38;1.90;;;0.80;;
5696;SDS011;2873;50.966;7.210;2023-04-03T09:56:04;1.92;;;0.90;;
5696;SDS011;2873;50.966;7.210;2023-04-03T09:58:40;2.60;;;0.80;;
5696;SDS011;2873;50.966;7.210;2023-04-03T10:01:21;3.10;;;1.00;;
5696;SDS011;2873;50.966;7.210;2023-04-03T10:04:09;2.42;;;0.82;;
5696;SDS011;2873;50.966;7.210;2023-04-03T10:06:55;1.58;;;0.70;;
5696;SDS011;2873;50.966;7.210;2023-04-03T10:09:25;3.60;;;1.05;;
5696;SDS011;2873;50.966;7.210;2023-04-03T10:15:10;2.70;;;0.80;;
5696;SDS011;2873;50.966;7.210;2023-04-03T10:23:18;0.80;;;0.70;;
5696;SDS011;2873;50.966;7.210;2023-04-03T10:31:23;2.47;;;0.65;;
5696;SDS011;2873;50.966;7.210;2023-04-03T10:34:18;0.87;;;0.67;;
5696;SDS011;2873;50.966;7.210;2023-04-03T10:36:56;1.30;;;0.65;;
5696;SDS011;2873;50.966;7.210;2023-04-03T10:47:17;0.65;;;0.60;;
5696;SDS011;2873;50.966;7.210;2023-04-03T10:50:10;1.10;;;0.60;;
5696;SDS011;2873;50.966;7.210;2023-04-03T10:58:57;0.98;;;0.90;;
5696;SDS011;2873;50.966;7.210;2023-04-03T11:01:33;1.37;;;0.90;;
5696;SDS011;2873;50.966;7.210;2023-04-03T11:04:03;1.38;;;0.70;;
5696;SDS011;2873;50.966;7.210;2023-04-03T11:06:32;1.00;;;0.80;;
5696;SDS011;2873;50.966;7.210;2023-04-03T11:09:07;1.20;;;0.70;;
5696;SDS011;2873;50.966;7.210;2023-04-03T11:11:37;1.17;;;0.75;;
5696;SDS011;2873;50.966;7.210;2023-04-03T11:14:08;0.70;;;0.70;;
5696;SDS011;2873;50.966;7.210;2023-04-03T11:16:42;2.23;;;1.10;;
5696;SDS011;2873;50.966;7.210;2023-04-03T11:19:17;3.90;;;0.90;;
5696;SDS011;2873;50.966;7.210;2023-04-03T11:21:54;1.67;;;1.10;;
5696;SDS011;2873;50.966;7.210;2023-04-03T11:24:27;3.40;;;0.90;;
5696;SDS011;2873;50.966;7.210;2023-04-03T11:26:56;1.23;;;0.80;;
5696;SDS011;2873;50.966;7.210;2023-04-03T11:29:25;1.25;;;0.80;;
5696;SDS011;2873;50.966;7.210;2023-04-03T11:35:04;1.90;;;0.80;;
5696;SDS011;2873;50.966;7.210;2023-04-03T11:37:38;1.52;;;1.00;;
5696;SDS011;2873;50.966;7.210;2023-04-03T11:42:46;1.90;;;0.90;;
5696;SDS011;2873;50.966;7.210;2023-04-03T11:47:52;1.40;;;0.95;;
5696;SDS011;2873;50.966;7.210;2023-04-03T11:50:31;1.77;;;1.00;;
5696;SDS011;2873;50.966;7.210;2023-04-03T12:05:51;1.60;;;0.80;;
5696;SDS011;2873;50.966;7.210;2023-04-03T12:08:36;1.88;;;0.85;;
5696;SDS011;2873;50.966;7.210;2023-04-03T12:13:39;1.30;;;1.00;;
5696;SDS011;2873;50.966;7.210;2023-04-03T12:16:26;1.60;;;0.80;;
5696;SDS011;2873;50.966;7.210;2023-04-03T12:29:10;0.80;;;0.73;;
5696;SDS011;2873;50.966;7.210;2023-04-03T12:31:46;2.70;;;0.80;;
5696;SDS011;2873;50.966;7.210;2023-04-03T12:37:46;0.80;;;0.80;;
5696;SDS011;2873;50.966;7.210;2023-04-03T12:40:37;0.85;;;0.80;;
5696;SDS011;2873;50.966;7.210;2023-04-03T12:51:13;2.30;;;1.10;;
5696;SDS011;2873;50.966;7.210;2023-04-03T12:53:41;2.40;;;0.80;;
5696;SDS011;2873;50.966;7.210;2023-04-03T12:59:14;1.93;;;1.70;;
5696;SDS011;2873;50.966;7.210;2023-04-03T13:01:43;1.57;;;1.00;;
5696;SDS011;2873;50.966;7.210;2023-04-03T13:04:17;1.33;;;1.10;;
5696;SDS011;2873;50.966;7.210;2023-04-03T13:06:43;1.00;;;0.70;;
5696;SDS011;2873;50.966;7.210;2023-04-03T13:09:23;1.85;;;1.08;;
5696;SDS011;2873;50.966;7.210;2023-04-03T13:14:26;1.35;;;1.25;;
5696;SDS011;2873;50.966;7.210;2023-04-03T13:17:03;1.20;;;1.20;;
5696;SDS011;2873;50.966;7.210;2023-04-03T13:19:37;1.40;;;1.30;;
5696;SDS011;2873;50.966;7.210;2023-04-03T13:22:04;1.40;;;1.17;;
5696;SDS011;2873;50.966;7.210;2023-04-03T13:24:35;1.63;;;0.90;;
5696;SDS011;2873;50.966;7.210;2023-04-03T13:27:06;1.80;;;1.10;;
5696;SDS011;2873;50.966;7.210;2023-04-03T13:29:36;1.80;;;1.05;;
5696;SDS011;2873;50.966;7.210;2023-04-03T13:32:03;1.70;;;1.20;;
5696;SDS011;2873;50.966;7.210;2023-04-03T13:34:38;0.98;;;0.88;;
5696;SDS011;2873;50.966;7.210;2023-04-03T13:37:06;3.00;;;1.40;;
5696;SDS011;2873;50.966;7.210;2023-04-03T13:39:43;1.30;;;1.20;;
5696;SDS011;2873;50.966;7.210;2023-04-03T13:42:23;2.40;;;1.10;;
5696;SDS011;2873;50.966;7.210;2023-04-03T13:47:52;2.13;;;1.40;;
5696;SDS011;2873;50.966;7.210;2023-04-03T13:50:31;2.00;;;1.15;;
5696;SDS011;2873;50.966;7.210;2023-04-03T13:53:01;3.50;;;1.23;;
5696;SDS011;2873;50.966;7.210;2023-04-03T13:55:39;2.60;;;1.10;;
5696;SDS011;2873;50.966;7.210;2023-04-03T13:58:28;4.80;;;0.90;;
5696;SDS011;2873;50.966;7.210;2023-04-03T14:01:17;2.08;;;1.17;;
5696;SDS011;2873;50.966;7.210;2023-04-03T14:06:24;1.25;;;1.10;;
5696;SDS011;2873;50.966;7.210;2023-04-03T14:08:50;2.58;;;0.90;;
5696;SDS011;2873;50.966;7.210;2023-04-03T14:11:18;1.20;;;1.10;;
5696;SDS011;2873;50.966;7.210;2023-04-03T14:13:52;2.47;;;1.20;;
5696;SDS011;2873;50.966;7.210;2023-04-03T14:16:19;3.00;;;1.50;;
5696;SDS011;2873;50.966;7.210;2023-04-03T14:18:47;2.17;;;1.50;;
5696;SDS011;2873;50.966;7.210;2023-04-03T14:21:14;3.00;;;1.20;;
5696;SDS011;2873;50.966;7.210;2023-04-03T14:23:41;3.60;;;1.10;;
5696;SDS011;2873;50.966;7.210;2023-04-03T14:26:14;1.20;;;1.00;;
5696;SDS011;2873;50.966;7.210;2023-04-03T14:28:49;2.22;;;1.17;;
5696;SDS011;2873;50.966;7.210;2023-04-03T14:31:17;4.82;;;1.30;;
5696;SDS011;2873;50.966;7.210;2023-04-03T14:33:43;2.90;;;1.17;;
5696;SDS011;2873;50.966;7.210;2023-04-03T14:36:16;1.98;;;1.17;;
5696;SDS011;2873;50.966;7.210;2023-04-03T14:38:45;1.90;;;1.10;;
5696;SDS011;2873;50.966;7.210;2023-04-03T14:41:12;1.52;;;1.10;;
5696;SDS011;2873;50.966;7.210;2023-04-03T14:43:40;2.38;;;1.20;;
5696;SDS011;2873;50.966;7.210;2023-04-03T14:46:10;0.80;;;0.80;;
5696;SDS011;2873;50.966;7.210;2023-04-03T14:48:46;1.20;;;1.10;;
5696;SDS011;2873;50.966;7.210;2023-04-03T14:51:12;1.40;;;1.00;;
5696;SDS011;2873;50.966;7.210;2023-04-03T14:53:39;3.88;;;1.10;;
5696;SDS011;2873;50.966;7.210;2023-04-03T14:59:01;1.13;;;1.02;;
5696;SDS011;2873;50.966;7.210;2023-04-03T15:04:19;2.08;;;1.20;;
5696;SDS011;2873;50.966;7.210;2023-04-03T15:06:46;2.65;;;0.90;;
5696;SDS011;2873;50.966;7.210;2023-04-03T15:09:31;1.10;;;1.00;;
5696;SDS011;2873;50.966;7.210;2023-04-03T15:11:57;1.60;;;0.98;;
5696;SDS011;2873;50.966;7.210;2023-04-03T15:14:22;1.20;;;1.10;;
5696;SDS011;2873;50.966;7.210;2023-04-03T15:16:48;2.00;;;1.30;;
5696;SDS011;2873;50.966;7.210;2023-04-03T15:19:14;2.50;;;1.20;;
5696;SDS011;2873;50.966;7.210;2023-04-03T15:21:47;1.48;;;1.38;;
5696;SDS011;2873;50.966;7.210;2023-04-03T15:24:12;1.80;;;1.20;;
5696;SDS011;2873;50.966;7.210;2023-04-03T15:26:38;2.22;;;1.10;;
5696;SDS011;2873;50.966;7.210;2023-04-03T15:29:04;3.60;;;1.30;;
5696;SDS011;2873;50.966;7.210;2023-04-03T15:31:29;3.50;;;1.17;;
5696;SDS011;2873;50.966;7.210;2023-04-03T15:33:56;3.20;;;1.30;;
5696;SDS011;2873;50.966;7.210;2023-04-03T15:36:21;2.25;;;1.20;;
5696;SDS011;2873;50.966;7.210;2023-04-03T15:38:47;1.60;;;1.00;;
5696;SDS011;2873;50.966;7.210;2023-04-03T15:41:14;2.40;;;1.30;;
5696;SDS011;2873;50.966;7.210;2023-04-03T15:43:40;1.55;;;1.20;;
5696;SDS011;2873;50.966;7.210;2023-04-03T15:46:05;3.20;;;1.00;;
5696;SDS011;2873;50.966;7.210;2023-04-03T15:48:31;2.40;;;1.25;;
5696;SDS011;2873;50.966;7.210;2023-04-03T15:50:57;1.60;;;0.90;;
5696;SDS011;2873;50.966;7.210;2023-04-03T15:53:22;2.75;;;1.15;;
5696;SDS011;2873;50.966;7.210;2023-04-03T15:55:48;1.33;;;1.10;;
5696;SDS011;2873;50.966;7.210;2023-04-03T15:58:14;1.90;;;1.20;;
5696;SDS011;2873;50.966;7.210;2023-04-03T16:00:39;4.03;;;1.10;;
5696;SDS011;2873;50.966;7.210;2023-04-03T16:03:07;1.10;;;1.00;;
5696;SDS011;2873;50.966;7.210;2023-04-03T16:05:35;2.60;;;1.30;;
5696;SDS011;2873;50.966;7.210;2023-04-03T16:08:02;1.10;;;1.00;;
5696;SDS011;2873;50.966;7.210;2023-04-03T16:10:28;2.20;;;1.10;;
5696;SDS011;2873;50.966;7.210;2023-04-03T16:12:54;1.42;;;1.00;;
5696;SDS011;2873;50.966;7.210;2023-04-03T16:15:20;1.37;;;1.07;;
5696;SDS011;2873;50.966;7.210;2023-04-03T16:17:45;3.00;;;1.30;;
5696;SDS011;2873;50.966;7.210;2023-04-03T16:20:13;1.83;;;1.10;;
5696;SDS011;2873;50.966;7.210;2023-04-03T16:22:39;1.85;;;1.35;;
5696;SDS011;2873;50.966;7.210;2023-04-03T16:25:05;1.48;;;1.10;;
5696;SDS011;2873;50.966;7.210;2023-04-03T16:27:33;1.30;;;1.20;;
5696;SDS011;2873;50.966;7.210;2023-04-03T16:29:58;2.22;;;1.25;;
5696;SDS011;2873;50.966;7.210;2023-04-03T16:32:25;4.03;;;1.30;;
5696;SDS011;2873;50.966;7.210;2023-04-03T16:34:53;2.27;;;1.53;;
5696;SDS011;2873;50.966;7.210;2023-04-03T16:37:19;3.15;;;1.25;;
5696;SDS011;2873;50.966;7.210;2023-04-03T16:39:45;1.00;;;1.00;;
5696;SDS011;2873;50.966;7.210;2023-04-03T16:42:10;1.33;;;1.10;;
5696;SDS011;2873;50.966;7.210;2023-04-03T16:44:36;4.50;;;1.00;;
5696;SDS011;2873;50.966;7.210;2023-04-03T16:47:03;2.00;;;1.00;;
5696;SDS011;2873;50.966;7.210;2023-04-03T16:49:28;3.50;;;1.10;;
5696;SDS011;2873;50.966;7.210;2023-04-03T16:51:57;1.35;;;1.20;;
5696;SDS011;2873;50.966;7.210;2023-04-03T16:54:23;1.00;;;1.00;;
5696;SDS011;2873;50.966;7.210;2023-04-03T16:56:49;2.17;;;1.00;;
5696;SDS011;2873;50.966;7.210;2023-04-03T16:59:15;1.40;;;1.30;;
5696;SDS011;2873;50.966;7.210;2023-04-03T17:01:40;1.53;;;1.00;;
5696;SDS011;2873;50.966;7.210;2023-04-03T17:04:06;2.53;;;1.10;;
5696;SDS011;2873;50.966;7.210;2023-04-03T17:06:32;1.27;;;1.13;;
5696;SDS011;2873;50.966;7.210;2023-04-03T17:08:57;1.30;;;0.98;;
5696;SDS011;2873;50.966;7.210;2023-04-03T17:11:23;2.30;;;1.40;;
5696;SDS011;2873;50.966;7.210;2023-04-03T17:13:48;3.70;;;1.20;;
5696;SDS011;2873;50.966;7.210;2023-04-03T17:16:14;2.92;;;1.25;;
5696;SDS011;2873;50.966;7.210;2023-04-03T17:18:41;1.95;;;1.10;;
5696;SDS011;2873;50.966;7.210;2023-04-03T17:21:10;3.33;;;1.23;;
5696;SDS011;2873;50.966;7.210;2023-04-03T17:23:36;2.63;;;1.07;;
5696;SDS011;2873;50.966;7.210;2023-04-03T17:26:06;3.10;;;1.27;;